Time;durP1;ratioP1;P1;durP2;ratioP2;P2;SDS_P1;SDS_P2;PMS_P1;PMS_P2;Temp;Humidity;BMP_temperature;BMP_pressure;BME280_temperature;BME280_humidity;BME280_pressure;Samples;Min_cycle;Max_cycle;Signal;HPM_P1;HPM_P2
2024/01/16 00:01:19;;;;;;;15.05;5.80;;;-2.20;99.90;;;;;;5074480;28;20055;-62
2024/01/16 00:03:47;;;;;;;14.60;5.68;;;-2.10;99.90;;;;;;5090984;28;20055;-62
2024/01/16 00:06:15;;;;;;;14.18;5.53;;;-2.20;99.90;;;;;;5096695;28;20048;-63
2024/01/16 00:08:43;;;;;;;9.88;4.75;;;-2.20;99.90;;;;;;5098736;28;20044;-66
2024/01/16 00:11:11;;;;;;;15.07;6.28;;;-2.20;99.90;;;;;;5079120;28;20059;-63
2024/01/16 00:13:38;;;;;;;12.77;5.43;;;-2.30;99.90;;;;;;5082238;28;20051;-62
2024/01/16 00:16:06;;;;;;;17.33;7.40;;;-2.30;99.90;;;;;;5080768;28;20041;-62
2024/01/16 00:18:34;;;;;;;13.60;6.40;;;-2.30;99.90;;;;;;5075956;28;20451;-62
2024/01/16 00:21:02;;;;;;;18.57;7.00;;;-2.30;99.90;;;;;;5086535;28;20048;-61
2024/01/16 00:23:33;;;;;;;13.95;6.80;;;-2.30;99.90;;;;;;5087119;28;20752;-62
2024/01/16 00:26:00;;;;;;;17.80;6.30;;;-2.30;99.90;;;;;;5068616;28;20040;-62
2024/01/16 00:28:28;;;;;;;16.42;7.15;;;-2.40;99.90;;;;;;5074897;28;20051;-62
2024/01/16 00:30:56;;;;;;;14.55;6.32;;;-2.30;99.90;;;;;;5087783;28;20036;-61
2024/01/16 00:33:24;;;;;;;16.48;6.95;;;-2.40;99.90;;;;;;5087094;28;20048;-62
2024/01/16 00:35:51;;;;;;;20.90;6.55;;;-2.40;99.90;;;;;;5097387;28;20051;-62
2024/01/16 00:38:19;;;;;;;15.23;6.85;;;-2.40;99.90;;;;;;5101169;28;20055;-63
2024/01/16 00:40:47;;;;;;;12.23;6.70;;;-2.40;99.90;;;;;;5075736;28;20040;-62
2024/01/16 00:43:14;;;;;;;19.52;7.13;;;-2.40;99.90;;;;;;5094031;28;20052;-62
2024/01/16 00:45:42;;;;;;;17.50;6.70;;;-2.40;99.90;;;;;;5081110;28;20392;-62
2024/01/16 00:48:13;;;;;;;12.48;6.07;;;-2.40;99.90;;;;;;5076630;28;20134;-62
2024/01/16 00:50:41;;;;;;;16.38;6.65;;;-2.40;99.90;;;;;;5091335;28;20063;-62
2024/01/16 00:53:09;;;;;;;16.05;6.38;;;-2.50;99.90;;;;;;5090798;28;20047;-62
2024/01/16 00:55:36;;;;;;;16.70;6.50;;;-2.50;99.90;;;;;;5090690;28;20040;-68
2024/01/16 00:58:04;;;;;;;13.70;5.68;;;-2.50;99.90;;;;;;5086973;28;20051;-62
2024/01/16 01:00:33;;;;;;;11.35;5.80;;;-2.50;99.90;;;;;;5091244;28;20379;-61
2024/01/16 01:03:03;;;;;;;14.38;5.65;;;-2.50;99.90;;;;;;5087853;28;20514;-62
2024/01/16 01:05:31;;;;;;;11.10;5.60;;;-2.50;99.90;;;;;;5090686;28;20402;-62
2024/01/16 01:07:59;;;;;;;15.10;6.03;;;-2.50;99.90;;;;;;5106959;28;20055;-63
2024/01/16 01:10:26;;;;;;;18.55;6.47;;;-2.50;99.90;;;;;;5081564;28;20048;-62
2024/01/16 01:12:54;;;;;;;14.70;5.85;;;-2.50;99.90;;;;;;5090445;28;20501;-61
2024/01/16 01:15:22;;;;;;;17.92;7.05;;;-2.50;99.90;;;;;;5085984;28;20093;-61
2024/01/16 01:17:51;;;;;;;17.27;6.22;;;-2.40;99.90;;;;;;5091758;28;20047;-61
2024/01/16 01:20:19;;;;;;;16.08;7.20;;;-2.40;99.90;;;;;;5080842;28;20043;-61
2024/01/16 01:22:47;;;;;;;14.38;5.90;;;-2.40;99.90;;;;;;5079540;28;20044;-61
2024/01/16 01:25:15;;;;;;;12.65;6.05;;;-2.40;99.90;;;;;;5080857;28;20049;-62
2024/01/16 01:27:43;;;;;;;16.10;6.20;;;-2.40;99.90;;;;;;5071037;28;20048;-61
2024/01/16 01:30:11;;;;;;;15.57;6.40;;;-2.40;99.90;;;;;;5090860;28;20044;-62
2024/01/16 01:32:39;;;;;;;15.50;6.50;;;-2.40;99.90;;;;;;5091157;28;20055;-61
2024/01/16 01:35:07;;;;;;;17.25;5.78;;;-2.30;99.90;;;;;;5095181;28;20040;-62
2024/01/16 01:37:35;;;;;;;15.82;6.53;;;-2.30;99.90;;;;;;5086557;28;20443;-62
2024/01/16 01:40:03;;;;;;;16.13;6.05;;;-2.30;99.90;;;;;;5086455;28;20475;-61
2024/01/16 01:42:30;;;;;;;16.45;5.72;;;-2.30;99.90;;;;;;5077204;28;20471;-61
2024/01/16 01:44:59;;;;;;;12.85;5.95;;;-2.30;99.90;;;;;;5074263;28;20068;-64
2024/01/16 01:47:27;;;;;;;14.50;6.60;;;-2.30;99.90;;;;;;5081263;28;20380;-61
2024/01/16 01:49:55;;;;;;;14.93;6.00;;;-2.30;99.90;;;;;;5089017;28;20060;-62
2024/01/16 01:52:23;;;;;;;14.95;6.72;;;-2.20;99.90;;;;;;5084837;28;20052;-61
2024/01/16 01:54:51;;;;;;;11.80;6.35;;;-2.20;99.90;;;;;;5087423;28;20060;-61
2024/01/16 01:57:19;;;;;;;13.00;6.07;;;-2.20;99.90;;;;;;5088664;28;20050;-62
2024/01/16 01:59:47;;;;;;;31.75;6.80;;;-2.10;99.90;;;;;;5088560;28;20055;-62
2024/01/16 02:02:20;;;;;;;15.20;6.75;;;-2.10;99.90;;;;;;5067701;28;20513;-61
2024/01/16 02:04:48;;;;;;;18.38;6.70;;;-2.10;99.90;;;;;;5092344;28;20198;-63
2024/01/16 02:07:16;;;;;;;22.73;7.38;;;-2.10;99.90;;;;;;5105103;28;20046;-63
2024/01/16 02:09:44;;;;;;;34.50;7.78;;;-2.20;99.90;;;;;;5080221;28;20052;-62
2024/01/16 02:12:11;;;;;;;21.52;7.28;;;-2.10;99.90;;;;;;5087707;28;20052;-61
2024/01/16 02:14:39;;;;;;;25.35;7.53;;;-2.10;99.90;;;;;;5078485;28;20052;-62
2024/01/16 02:17:07;;;;;;;13.95;7.03;;;-2.00;99.90;;;;;;5086405;28;20044;-62
2024/01/16 02:19:35;;;;;;;17.48;7.25;;;-2.00;99.90;;;;;;5088280;28;20059;-62
2024/01/16 02:22:09;;;;;;;18.20;7.80;;;-1.90;99.90;;;;;;5089509;28;20044;-62
2024/01/16 02:24:37;;;;;;;18.92;6.88;;;-1.90;99.90;;;;;;5085375;28;20055;-63
2024/01/16 02:27:04;;;;;;;24.30;7.93;;;-1.80;99.90;;;;;;5089453;28;20048;-61
2024/01/16 02:29:32;;;;;;;20.60;7.00;;;-1.80;99.90;;;;;;5088535;28;20067;-61
2024/01/16 02:32:00;;;;;;;15.27;6.57;;;-1.80;99.90;;;;;;5073656;28;20052;-61
2024/01/16 02:34:27;;;;;;;14.90;7.18;;;-1.70;99.90;;;;;;5073304;28;20047;-62
2024/01/16 02:36:55;;;;;;;14.93;6.45;;;-1.70;99.90;;;;;;5095527;28;20047;-64
2024/01/16 02:39:23;;;;;;;15.15;6.30;;;-1.70;99.90;;;;;;5079848;28;20053;-61
2024/01/16 02:41:50;;;;;;;19.25;7.35;;;-1.70;99.90;;;;;;5079428;28;20566;-62
2024/01/16 02:44:18;;;;;;;17.42;6.20;;;-1.60;99.90;;;;;;5088314;28;20047;-62
2024/01/16 02:46:46;;;;;;;14.82;6.78;;;-1.60;99.90;;;;;;5078582;28;20049;-61
2024/01/16 02:49:13;;;;;;;16.70;7.05;;;-1.60;99.90;;;;;;5090706;28;20384;-61
2024/01/16 02:51:41;;;;;;;17.27;5.45;;;-1.50;99.90;;;;;;5090923;28;20368;-61
2024/01/16 02:54:09;;;;;;;11.88;5.45;;;-1.50;99.90;;;;;;5091019;28;20052;-63
2024/01/16 02:56:36;;;;;;;12.38;6.40;;;-1.50;99.90;;;;;;5082665;28;20055;-62
2024/01/16 02:59:04;;;;;;;14.02;6.82;;;-1.40;99.90;;;;;;5091522;28;20058;-62
2024/01/16 03:01:31;;;;;;;19.52;6.60;;;-1.40;99.90;;;;;;5092186;28;20048;-61
2024/01/16 03:03:59;;;;;;;15.73;6.60;;;-1.40;99.90;;;;;;5082415;28;20579;-62
2024/01/16 03:06:28;;;;;;;14.43;5.53;;;-1.30;99.90;;;;;;5092177;28;20039;-62
2024/01/16 03:08:56;;;;;;;12.55;5.28;;;-1.30;99.90;;;;;;5090498;28;20032;-61
2024/01/16 03:11:24;;;;;;;12.38;5.03;;;-1.30;99.90;;;;;;5090750;28;20051;-61
2024/01/16 03:13:53;;;;;;;14.27;5.78;;;-1.30;99.90;;;;;;5070139;28;20051;-62
2024/01/16 03:16:21;;;;;;;12.45;5.65;;;-1.30;99.90;;;;;;5080334;28;20066;-61
2024/01/16 03:18:48;;;;;;;12.23;4.95;;;-1.20;99.90;;;;;;5087204;28;20036;-62
2024/01/16 03:21:16;;;;;;;11.57;5.20;;;-1.20;99.90;;;;;;5081788;28;20047;-62
2024/01/16 03:23:44;;;;;;;14.23;5.28;;;-1.20;99.90;;;;;;5069791;28;20036;-61
2024/01/16 03:26:13;;;;;;;9.63;4.63;;;-1.20;99.90;;;;;;5072824;28;20063;-61
2024/01/16 03:28:41;;;;;;;13.25;5.38;;;-1.20;99.90;;;;;;5071432;28;20052;-61
2024/01/16 03:31:09;;;;;;;10.50;3.88;;;-1.20;99.90;;;;;;5071316;28;20612;-61
2024/01/16 03:33:41;;;;;;;10.02;4.70;;;-1.10;99.90;;;;;;5071521;28;20049;-61
2024/01/16 03:36:12;;;;;;;12.35;4.82;;;-1.10;99.90;;;;;;5095374;28;20040;-65
2024/01/16 03:38:40;;;;;;;13.20;4.70;;;-1.10;99.90;;;;;;5087153;28;20486;-61
2024/01/16 03:41:08;;;;;;;11.75;4.55;;;-1.10;99.90;;;;;;5089053;28;20472;-62
2024/01/16 03:43:36;;;;;;;15.82;4.15;;;-1.10;99.90;;;;;;5091357;28;20044;-61
2024/01/16 03:46:04;;;;;;;14.05;4.10;;;-1.10;99.90;;;;;;5090682;28;20037;-61
2024/01/16 03:48:31;;;;;;;12.15;5.20;;;-1.00;99.90;;;;;;5091546;28;20052;-61
2024/01/16 03:50:59;;;;;;;13.10;5.40;;;-1.00;99.90;;;;;;5073487;28;20040;-64
2024/01/16 03:53:26;;;;;;;14.27;4.68;;;-1.00;99.90;;;;;;5071417;28;20067;-61
2024/01/16 03:55:54;;;;;;;13.18;5.43;;;-1.00;99.90;;;;;;5073905;28;20407;-61
2024/01/16 03:58:23;;;;;;;10.90;4.90;;;-0.90;99.90;;;;;;5091527;28;20036;-61
2024/01/16 04:00:51;;;;;;;11.13;5.05;;;-0.90;99.90;;;;;;5086673;28;20048;-62
2024/01/16 04:03:18;;;;;;;10.60;5.25;;;-0.90;99.90;;;;;;5083250;28;20056;-61
2024/01/16 04:05:46;;;;;;;16.13;4.60;;;-0.90;99.90;;;;;;5097414;28;20036;-61
2024/01/16 04:08:14;;;;;;;15.15;5.25;;;-0.90;99.90;;;;;;5089643;28;20479;-61
2024/01/16 04:10:41;;;;;;;10.68;4.72;;;-0.80;99.90;;;;;;5087900;28;20054;-61
2024/01/16 04:13:09;;;;;;;13.57;4.68;;;-0.80;99.90;;;;;;5088860;28;20052;-61
2024/01/16 04:15:40;;;;;;;12.88;4.80;;;-0.80;99.90;;;;;;5091341;28;20048;-61
2024/01/16 04:18:07;;;;;;;6.90;4.00;;;-0.80;99.90;;;;;;5071164;28;20044;-62
2024/01/16 04:20:35;;;;;;;7.63;4.00;;;-0.80;99.90;;;;;;5073634;28;20479;-61
2024/01/16 04:23:03;;;;;;;10.23;3.47;;;-0.80;99.90;;;;;;5092483;28;20048;-61
2024/01/16 04:25:31;;;;;;;8.40;3.35;;;-0.70;99.90;;;;;;5095169;28;20048;-61
2024/01/16 04:27:59;;;;;;;15.02;3.95;;;-0.70;99.90;;;;;;5094838;28;20051;-62
2024/01/16 04:30:29;;;;;;;6.97;3.42;;;-0.70;99.90;;;;;;5093836;28;20044;-63
2024/01/16 04:32:57;;;;;;;8.13;3.50;;;-0.70;99.90;;;;;;5102901;28;20036;-61
2024/01/16 04:35:25;;;;;;;16.05;3.72;;;-0.70;99.90;;;;;;5097056;28;20403;-61
2024/01/16 04:37:52;;;;;;;6.28;2.10;;;-0.70;99.90;;;;;;5095667;28;20048;-61
2024/01/16 04:40:20;;;;;;;6.65;1.92;;;-0.70;99.90;;;;;;5092859;28;20052;-61
2024/01/16 04:42:48;;;;;;;3.50;1.67;;;-0.70;99.90;;;;;;5075789;28;20523;-61
2024/01/16 04:45:15;;;;;;;0.63;0.57;;;-0.60;99.90;;;;;;5079037;28;20052;-61
2024/01/16 04:47:43;;;;;;;3.10;1.02;;;-0.60;99.90;;;;;;5089269;28;20059;-61
2024/01/16 04:50:11;;;;;;;4.45;0.90;;;-0.60;99.90;;;;;;5091865;28;20387;-61
2024/01/16 04:52:39;;;;;;;7.68;1.40;;;-0.40;99.90;;;;;;5074277;28;20049;-61
2024/01/16 04:55:07;;;;;;;4.97;0.75;;;-0.40;99.90;;;;;;5074819;28;20504;-62
2024/01/16 04:57:35;;;;;;;8.02;1.27;;;-0.30;99.90;;;;;;5089605;28;20040;-63
2024/01/16 05:00:06;;;;;;;4.30;0.80;;;-0.30;99.90;;;;;;5094489;28;20055;-61
2024/01/16 05:02:35;;;;;;;7.25;1.17;;;-0.20;99.90;;;;;;5113921;28;20048;-61
2024/01/16 05:05:03;;;;;;;1.95;0.50;;;-0.20;99.90;;;;;;5104742;28;20055;-61
2024/01/16 05:07:31;;;;;;;3.97;0.90;;;-0.20;99.90;;;;;;5098574;28;20040;-61
2024/01/16 05:09:58;;;;;;;1.92;0.65;;;-0.10;99.90;;;;;;5093488;28;20048;-62
2024/01/16 05:12:26;;;;;;;4.22;0.60;;;-0.10;99.90;;;;;;5092718;28;20044;-61
2024/01/16 05:14:54;;;;;;;8.18;1.92;;;-0.10;99.90;;;;;;5094023;28;20051;-61
2024/01/16 05:17:21;;;;;;;6.85;0.80;;;-0.10;99.90;;;;;;5098341;28;20479;-61
2024/01/16 05:19:49;;;;;;;4.28;0.55;;;-0.10;99.90;;;;;;5115258;28;20051;-62
2024/01/16 05:22:16;;;;;;;4.10;0.60;;;0.00;99.90;;;;;;5075335;28;20037;-61
2024/01/16 05:24:44;;;;;;;1.60;0.70;;;0.00;99.90;;;;;;5074346;28;20056;-63
2024/01/16 05:27:12;;;;;;;1.90;0.82;;;0.00;99.90;;;;;;5084185;28;20040;-62
2024/01/16 05:29:43;;;;;;;5.35;0.95;;;-0.10;99.90;;;;;;5096809;28;20051;-62
2024/01/16 05:32:13;;;;;;;3.90;0.80;;;-0.10;99.90;;;;;;5113752;28;20475;-61
2024/01/16 05:34:40;;;;;;;10.82;1.08;;;-0.10;99.90;;;;;;5104861;28;20059;-61
2024/01/16 05:37:08;;;;;;;2.25;0.52;;;0.00;99.90;;;;;;5099468;28;20044;-61
2024/01/16 05:39:37;;;;;;;4.35;0.93;;;0.00;99.90;;;;;;5086812;28;20041;-61
2024/01/16 05:42:05;;;;;;;1.40;0.47;;;0.00;99.90;;;;;;5075113;28;20402;-62
2024/01/16 05:44:32;;;;;;;4.20;0.80;;;0.00;99.90;;;;;;5071947;28;20056;-61
2024/01/16 05:47:00;;;;;;;5.30;0.70;;;0.00;99.90;;;;;;5082607;28;20051;-61
2024/01/16 05:49:28;;;;;;;2.83;0.88;;;0.00;99.90;;;;;;5079112;28;20044;-62
2024/01/16 05:51:57;;;;;;;6.40;0.90;;;0.00;99.90;;;;;;5070717;28;20060;-62
2024/01/16 05:54:24;;;;;;;3.35;0.80;;;0.00;99.90;;;;;;5069774;28;20063;-63
2024/01/16 05:56:52;;;;;;;1.55;0.82;;;0.00;99.90;;;;;;5077736;28;20028;-63
2024/01/16 05:59:20;;;;;;;12.10;2.40;;;0.00;99.90;;;;;;5100017;28;20390;-63
2024/01/16 06:01:49;;;;;;;4.93;2.38;;;0.10;99.90;;;;;;5083070;28;20044;-61
2024/01/16 06:04:16;;;;;;;8.17;3.50;;;0.00;99.90;;;;;;5068613;28;20406;-61
2024/01/16 06:06:45;;;;;;;8.90;4.43;;;0.10;99.90;;;;;;5083530;28;20319;-62
2024/01/16 06:09:16;;;;;;;14.13;4.80;;;0.00;99.90;;;;;;5088865;28;20047;-62
2024/01/16 06:11:44;;;;;;;9.73;4.32;;;0.00;99.90;;;;;;5080834;28;20301;-68
2024/01/16 06:14:12;;;;;;;14.90;4.55;;;-0.10;99.90;;;;;;5070547;28;20056;-71
2024/01/16 06:16:40;;;;;;;6.47;3.67;;;-0.20;99.90;;;;;;5086536;28;20043;-64
2024/01/16 06:19:08;;;;;;;13.48;4.57;;;-0.20;99.90;;;;;;5088201;28;20048;-65
2024/01/16 06:21:36;;;;;;;9.35;4.47;;;-0.30;99.90;;;;;;5087178;28;20048;-67
2024/01/16 06:24:03;;;;;;;10.98;4.35;;;-0.30;99.90;;;;;;5089129;28;20655;-67
2024/01/16 06:26:31;;;;;;;9.50;3.75;;;-0.40;99.90;;;;;;5088437;28;20044;-68
2024/01/16 06:28:59;;;;;;;9.60;4.40;;;-0.40;99.90;;;;;;5074297;28;20044;-69
2024/01/16 06:31:26;;;;;;;11.73;3.92;;;-0.40;99.90;;;;;;5088241;28;20052;-70
2024/01/16 06:33:54;;;;;;;10.52;4.05;;;-0.40;99.90;;;;;;5088714;28;20048;-69
2024/01/16 06:36:22;;;;;;;15.82;4.30;;;-0.50;99.90;;;;;;5092488;28;20032;-63
2024/01/16 06:38:50;;;;;;;12.75;4.18;;;-0.50;99.90;;;;;;5075476;28;20044;-61
2024/01/16 06:41:18;;;;;;;8.55;3.53;;;-0.50;99.90;;;;;;5079549;28;20040;-61
2024/01/16 06:43:45;;;;;;;12.48;4.95;;;-0.50;99.90;;;;;;5088439;28;20399;-61
2024/01/16 06:46:13;;;;;;;11.07;4.20;;;-0.50;99.90;;;;;;5088280;28;20403;-61
2024/01/16 06:48:41;;;;;;;5.93;3.95;;;-0.50;99.90;;;;;;5088258;28;20066;-61
2024/01/16 06:51:10;;;;;;;10.38;4.18;;;-0.60;99.90;;;;;;5078723;28;20134;-69
2024/01/16 06:53:38;;;;;;;7.18;3.83;;;-0.50;99.90;;;;;;5082601;28;20036;-69
2024/01/16 06:56:08;;;;;;;10.80;3.88;;;-0.50;99.90;;;;;;5090650;28;20052;-69
2024/01/16 06:58:36;;;;;;;9.73;3.85;;;-0.50;99.90;;;;;;5099860;28;20133;-69
2024/01/16 07:01:04;;;;;;;9.38;3.70;;;-0.50;99.90;;;;;;5109203;28;20035;-68
2024/01/16 07:03:32;;;;;;;13.07;3.97;;;-0.50;99.90;;;;;;5108571;28;20062;-66
2024/01/16 07:06:00;;;;;;;7.55;3.35;;;-0.50;99.90;;;;;;5096621;28;20039;-63
2024/01/16 07:08:28;;;;;;;11.68;3.50;;;-0.50;99.90;;;;;;5097905;28;20042;-62
2024/01/16 07:10:56;;;;;;;6.45;3.50;;;-0.50;99.90;;;;;;5096077;28;20052;-61
2024/01/16 07:13:24;;;;;;;17.63;4.00;;;-0.50;99.90;;;;;;5081854;28;20515;-61
2024/01/16 07:15:51;;;;;;;8.65;3.90;;;-0.50;99.90;;;;;;5088719;28;20499;-61
2024/01/16 07:18:19;;;;;;;10.38;3.58;;;-0.50;99.90;;;;;;5091706;28;20044;-61
2024/01/16 07:20:50;;;;;;;9.73;3.65;;;-0.40;99.90;;;;;;5081272;28;20047;-64
2024/01/16 07:23:17;;;;;;;6.95;3.65;;;-0.40;99.90;;;;;;5066362;28;20049;-68
2024/01/16 07:25:45;;;;;;;7.57;3.15;;;-0.40;99.90;;;;;;5082838;28;20054;-65
2024/01/16 07:28:14;;;;;;;9.23;4.35;;;-0.40;99.90;;;;;;5100749;28;20048;-69
2024/01/16 07:30:42;;;;;;;11.25;3.70;;;-0.50;99.90;;;;;;5088267;28;20055;-69
2024/01/16 07:33:09;;;;;;;7.95;2.90;;;-0.50;99.90;;;;;;5087690;28;20122;-69
2024/01/16 07:35:40;;;;;;;6.35;3.13;;;-0.50;99.90;;;;;;5072754;28;20044;-71
2024/01/16 07:38:08;;;;;;;9.82;3.20;;;-0.50;99.90;;;;;;5075104;28;20067;-68
2024/01/16 07:40:36;;;;;;;15.70;4.45;;;-0.50;99.90;;;;;;5088724;28;20044;-65
2024/01/16 07:43:03;;;;;;;9.15;2.78;;;-0.50;99.90;;;;;;5082421;28;20032;-62
2024/01/16 07:45:31;;;;;;;6.75;2.75;;;-0.60;99.90;;;;;;5066578;28;20213;-61
2024/01/16 07:47:59;;;;;;;11.82;2.75;;;-0.60;99.90;;;;;;5073132;28;20040;-65
2024/01/16 07:50:26;;;;;;;4.50;2.75;;;-0.60;99.90;;;;;;5085301;28;20522;-61
2024/01/16 07:52:54;;;;;;;9.93;2.03;;;-0.70;99.90;;;;;;5081920;28;20039;-61
2024/01/16 07:55:22;;;;;;;4.35;1.95;;;-0.70;99.90;;;;;;5082014;28;20053;-62
2024/01/16 07:57:51;;;;;;;6.90;2.47;;;-0.70;99.90;;;;;;5069462;28;20052;-61
2024/01/16 08:00:19;;;;;;;10.65;2.45;;;-0.70;99.90;;;;;;5068502;28;20036;-62
2024/01/16 08:02:47;;;;;;;14.45;5.07;;;-0.70;99.90;;;;;;5083556;28;20059;-62
2024/01/16 08:05:15;;;;;;;4.68;2.70;;;-0.70;99.90;;;;;;5069987;28;20044;-61
2024/01/16 08:07:43;;;;;;;5.88;2.08;;;-0.70;99.90;;;;;;5090794;28;20061;-62
2024/01/16 08:10:11;;;;;;;5.57;1.73;;;-0.80;99.90;;;;;;5091037;28;20040;-62
2024/01/16 08:12:38;;;;;;;5.63;1.83;;;-0.80;99.90;;;;;;5096101;28;20052;-62
2024/01/16 08:15:07;;;;;;;8.20;3.00;;;-0.80;99.90;;;;;;5105435;28;20291;-61
2024/01/16 08:17:35;;;;;;;4.65;2.08;;;-0.80;99.90;;;;;;5090612;28;20380;-61
2024/01/16 08:20:03;;;;;;;10.63;1.85;;;-0.80;99.90;;;;;;5074157;28;20061;-62
2024/01/16 08:22:31;;;;;;;3.47;1.80;;;-0.80;99.90;;;;;;5087885;28;20040;-62
2024/01/16 08:24:58;;;;;;;4.68;1.63;;;-0.90;99.90;;;;;;5090235;28;20394;-62
2024/01/16 08:27:26;;;;;;;6.03;1.90;;;-0.90;99.90;;;;;;5092227;28;20040;-62
2024/01/16 08:29:53;;;;;;;4.65;1.55;;;-0.90;99.90;;;;;;5092100;28;20059;-62
2024/01/16 08:32:21;;;;;;;4.95;1.95;;;-0.90;99.90;;;;;;5090169;28;20048;-61
2024/01/16 08:34:49;;;;;;;3.95;1.50;;;-0.90;99.90;;;;;;5091687;28;20040;-61
2024/01/16 08:37:17;;;;;;;12.60;2.28;;;-0.90;99.90;;;;;;5084170;28;20056;-62
2024/01/16 08:39:44;;;;;;;5.78;1.75;;;-1.00;99.90;;;;;;5089801;28;20044;-63
2024/01/16 08:42:12;;;;;;;6.10;1.30;;;-1.00;99.90;;;;;;5076432;28;20040;-62
2024/01/16 08:44:40;;;;;;;6.53;1.70;;;-1.00;99.90;;;;;;5089134;28;20455;-61
2024/01/16 08:47:08;;;;;;;6.03;1.52;;;-1.00;99.90;;;;;;5075872;28;20578;-62
2024/01/16 08:49:38;;;;;;;5.13;1.80;;;-1.00;99.90;;;;;;5082835;28;20118;-61
2024/01/16 08:52:06;;;;;;;6.47;1.40;;;-1.00;99.90;;;;;;5079729;28;20049;-61
2024/01/16 08:54:34;;;;;;;8.55;1.80;;;-1.00;99.90;;;;;;5088935;28;20036;-61
2024/01/16 08:57:02;;;;;;;8.75;1.92;;;-1.00;99.90;;;;;;5084716;28;20051;-62
2024/01/16 08:59:29;;;;;;;9.00;3.55;;;-1.10;99.90;;;;;;5090089;28;20048;-62
2024/01/16 09:01:57;;;;;;;4.82;1.60;;;-1.10;99.90;;;;;;5087436;28;20048;-66
2024/01/16 09:04:25;;;;;;;4.68;1.50;;;-1.00;99.90;;;;;;5088681;28;20048;-67
2024/01/16 09:06:53;;;;;;;9.65;1.80;;;-1.00;99.90;;;;;;5091137;28;20048;-64
2024/01/16 09:09:21;;;;;;;3.28;1.50;;;-0.90;99.90;;;;;;5087496;28;20048;-62
2024/01/16 09:11:49;;;;;;;9.45;2.10;;;-0.90;99.90;;;;;;5089686;28;20048;-63
2024/01/16 09:14:17;;;;;;;5.97;1.70;;;-0.80;99.90;;;;;;5090883;28;20040;-62
2024/01/16 09:16:45;;;;;;;3.15;1.48;;;-0.70;99.90;;;;;;5089024;28;20068;-65
2024/01/16 09:19:14;;;;;;;15.05;2.00;;;-0.70;99.90;;;;;;5091019;28;20048;-61
2024/01/16 09:21:41;;;;;;;5.18;1.73;;;-0.60;99.90;;;;;;5084869;28;20055;-68
2024/01/16 09:24:09;;;;;;;9.25;1.67;;;-0.50;99.90;;;;;;5089218;28;20506;-69
2024/01/16 09:26:37;;;;;;;6.68;1.63;;;-0.40;99.90;;;;;;5089023;28;20040;-67
2024/01/16 09:29:04;;;;;;;5.78;1.48;;;-0.30;99.90;;;;;;5089895;28;20589;-64
2024/01/16 09:31:32;;;;;;;6.55;1.77;;;-0.20;99.90;;;;;;5089325;28;20376;-61
2024/01/16 09:34:00;;;;;;;4.50;1.45;;;-0.10;99.90;;;;;;5089441;28;20040;-61
2024/01/16 09:36:29;;;;;;;;;;;0.10;99.90;;;;;;5098693;28;20043;-62
2024/01/16 09:38:57;;;;;;;5.10;1.83;;;0.20;99.90;;;;;;5083034;28;19931;-62
2024/01/16 09:41:25;;;;;;;8.50;1.65;;;0.30;99.90;;;;;;5090276;28;20048;-61
2024/01/16 09:43:53;;;;;;;6.43;1.90;;;0.40;99.90;;;;;;5089923;28;20407;-63
2024/01/16 09:46:24;;;;;;;7.95;2.00;;;0.50;99.90;;;;;;5088474;28;20300;-61
2024/01/16 09:48:55;;;;;;;7.32;1.67;;;0.50;99.90;;;;;;5087728;28;20048;-62
2024/01/16 09:51:23;;;;;;;5.43;1.42;;;0.60;99.90;;;;;;5089768;28;20066;-61
2024/01/16 09:53:51;;;;;;;10.77;2.17;;;0.60;99.90;;;;;;5103293;28;20070;-61
2024/01/16 09:56:23;;;;;;;3.35;1.50;;;0.70;99.90;;;;;;5089976;28;20503;-62
2024/01/16 09:59:05;;;;;;;4.22;1.42;;;0.70;99.90;;;;;;5084448;28;20055;-69
2024/01/16 10:01:33;;;;;;;6.55;1.80;;;0.80;99.90;;;;;;5087023;28;20039;-61
2024/01/16 10:04:01;;;;;;;4.82;2.22;;;0.80;99.90;;;;;;5084289;28;20052;-68
2024/01/16 10:06:31;;;;;;;6.63;2.03;;;0.80;99.90;;;;;;5100987;28;20043;-70
2024/01/16 10:08:59;;;;;;;5.47;1.80;;;0.80;99.90;;;;;;5082611;28;20047;-69
2024/01/16 10:11:28;;;;;;;5.88;2.35;;;0.80;99.90;;;;;;5088861;28;20044;-70
2024/01/16 10:13:58;;;;;;;6.07;1.65;;;0.80;99.90;;;;;;5089085;28;20514;-64
2024/01/16 10:16:44;;;;;;;;;;;0.90;99.90;;;;;;5082317;28;20052;-67
2024/01/16 10:19:12;;;;;;;4.25;2.00;;;1.00;99.90;;;;;;5081397;28;20386;-67
2024/01/16 10:21:40;;;;;;;5.25;1.70;;;1.10;99.90;;;;;;5087077;28;20044;-62
2024/01/16 10:24:13;;;;;;;5.50;2.10;;;1.20;99.90;;;;;;5087833;28;20040;-64
2024/01/16 10:26:41;;;;;;;7.75;1.70;;;1.30;99.90;;;;;;5085946;28;20507;-70
2024/01/16 10:29:09;;;;;;;4.45;1.92;;;1.50;99.90;;;;;;5097440;28;20047;-70
2024/01/16 10:31:40;;;;;;;4.85;2.10;;;1.50;99.90;;;;;;5109350;28;20043;-63
2024/01/16 10:34:22;;;;;;;3.58;1.40;;;1.60;99.90;;;;;;5105036;28;20048;-66
2024/01/16 10:36:57;;;;;;;5.47;1.70;;;1.80;99.90;;;;;;5103361;28;20047;-63
2024/01/16 10:39:25;;;;;;;4.85;1.73;;;1.90;99.90;;;;;;5100740;28;20048;-68
2024/01/16 10:42:07;;;;;;;4.70;2.45;;;2.00;99.90;;;;;;5087399;28;20059;-65
2024/01/16 10:44:37;;;;;;;7.32;1.63;;;2.10;99.90;;;;;;5104908;28;20043;-63
2024/01/16 10:47:12;;;;;;;5.03;1.75;;;2.10;99.90;;;;;;5085373;28;20048;-65
2024/01/16 10:49:40;;;;;;;3.85;1.98;;;2.20;99.90;;;;;;5085671;28;20052;-67
2024/01/16 10:52:12;;;;;;;6.07;2.22;;;2.30;99.90;;;;;;5082559;28;21286;-62
2024/01/16 10:54:41;;;;;;;5.63;2.28;;;2.30;99.90;;;;;;5065572;28;20052;-63
2024/01/16 10:57:11;;;;;;;4.45;1.70;;;2.40;99.90;;;;;;5067045;28;20507;-63
2024/01/16 11:00:04;;;;;;;6.15;2.03;;;2.40;99.90;;;;;;5103668;28;20387;-63
2024/01/16 11:02:42;;;;;;;3.33;1.40;;;2.40;99.90;;;;;;5100091;28;20044;-62
2024/01/16 11:05:12;;;;;;;6.53;2.05;;;2.40;99.90;;;;;;5084047;28;20044;-70
2024/01/16 11:07:42;;;;;;;6.78;1.88;;;2.50;99.90;;;;;;5082269;28;20412;-71
2024/01/16 11:10:10;;;;;;;5.97;2.65;;;2.50;99.90;;;;;;5085512;28;20051;-66
2024/01/16 11:12:39;;;;;;;4.20;1.73;;;2.70;99.90;;;;;;5081369;28;20052;-72
2024/01/16 11:15:12;;;;;;;4.50;1.83;;;2.80;99.90;;;;;;5070749;28;20047;-71
2024/01/16 11:17:43;;;;;;;9.05;2.63;;;2.90;99.90;;;;;;5071073;28;20070;-70
2024/01/16 11:20:13;;;;;;;9.57;2.35;;;3.10;99.90;;;;;;5068222;28;20052;-63
2024/01/16 11:23:02;;;;;;;3.90;1.40;;;3.10;99.90;;;;;;5075347;28;20047;-63
2024/01/16 11:25:33;;;;;;;5.97;1.50;;;3.20;99.90;;;;;;5077786;28;20052;-63
2024/01/16 11:28:13;;;;;;;1.73;0.93;;;3.30;99.90;;;;;;5071893;28;20495;-64
2024/01/16 11:30:42;;;;;;;8.52;1.73;;;3.30;99.90;;;;;;5066209;28;20053;-63
2024/01/16 11:33:37;;;;;;;6.78;2.28;;;3.30;99.90;;;;;;5066797;28;20425;-62
2024/01/16 11:36:05;;;;;;;3.08;1.13;;;3.40;99.90;;;;;;5075465;28;20430;-63
2024/01/16 11:38:34;;;;;;;5.93;1.55;;;3.40;99.90;;;;;;5087667;28;20384;-62
2024/01/16 11:41:01;;;;;;;1.92;1.20;;;3.50;99.90;;;;;;5068854;28;20044;-63
2024/01/16 11:43:32;;;;;;;5.57;1.65;;;3.50;99.90;;;;;;5067929;28;20044;-64
2024/01/16 11:46:09;;;;;;;5.43;1.33;;;3.50;99.90;;;;;;5075729;28;20496;-63
2024/01/16 11:48:39;;;;;;;4.70;1.30;;;3.50;99.90;;;;;;5077025;28;20062;-63
2024/01/16 11:51:22;;;;;;;;;;;3.60;99.90;;;;;;5082296;28;20426;-63
2024/01/16 11:53:50;;;;;;;3.33;0.90;;;3.50;99.90;;;;;;5084818;28;19920;-62
2024/01/16 11:56:54;;;;;;;1.55;0.90;;;3.50;99.90;;;;;;5066196;28;20053;-64
2024/01/16 12:00:00;;;;;;;3.55;0.80;;;3.50;99.90;;;;;;5085260;28;20055;-62
2024/01/16 12:02:49;;;;;;;5.13;1.40;;;3.50;99.90;;;;;;5077871;28;20045;-64
2024/01/16 12:05:16;;;;;;;3.65;1.17;;;3.50;99.90;;;;;;5083517;28;20056;-63
2024/01/16 12:07:50;;;;;;;1.98;1.00;;;3.50;99.90;;;;;;5059632;28;20067;-64
2024/01/16 12:10:20;;;;;;;4.13;1.13;;;3.80;99.90;;;;;;5081517;28;20044;-64
2024/01/16 12:12:49;;;;;;;4.65;1.25;;;3.90;99.90;;;;;;5072274;28;20052;-65
2024/01/16 12:15:20;;;;;;;7.85;2.65;;;4.00;99.90;;;;;;5072261;28;20049;-63
2024/01/16 12:17:54;;;;;;;8.40;1.55;;;4.10;99.90;;;;;;5075189;28;20032;-62
2024/01/16 12:20:24;;;;;;;4.10;1.38;;;4.10;99.90;;;;;;5078785;28;20044;-62
2024/01/16 12:23:00;;;;;;;4.57;1.58;;;4.10;99.90;;;;;;5083714;28;20047;-63
2024/01/16 12:25:29;;;;;;;2.58;1.15;;;4.10;99.90;;;;;;5075165;28;20048;-64
2024/01/16 12:28:21;;;;;;;2.05;1.00;;;4.00;99.90;;;;;;5075813;28;20051;-68
2024/01/16 12:30:51;;;;;;;1.45;0.93;;;3.90;99.90;;;;;;5086876;28;20490;-62
2024/01/16 12:33:22;;;;;;;3.63;0.75;;;3.90;99.90;;;;;;5075264;28;20044;-68
2024/01/16 12:35:50;;;;;;;1.73;0.95;;;3.80;99.90;;;;;;5078896;28;20048;-70
2024/01/16 12:38:18;;;;;;;3.83;0.85;;;3.70;99.90;;;;;;5080104;28;20044;-63
2024/01/16 12:40:49;;;;;;;4.25;0.50;;;3.70;99.90;;;;;;5088051;28;20060;-71
2024/01/16 12:43:19;;;;;;;5.95;0.90;;;3.70;99.90;;;;;;5081236;28;20044;-65
2024/01/16 12:45:55;;;;;;;2.03;0.93;;;3.70;99.90;;;;;;5063309;28;20591;-63
2024/01/16 12:48:26;;;;;;;3.63;0.70;;;3.80;99.90;;;;;;5079335;28;20047;-66
2024/01/16 12:51:02;;;;;;;1.23;0.50;;;3.80;99.90;;;;;;5073702;28;20396;-70
2024/01/16 12:53:33;;;;;;;3.45;0.60;;;3.80;99.90;;;;;;5090953;28;20048;-66
2024/01/16 12:56:03;;;;;;;;;;;3.80;99.90;;;;;;5086223;28;20052;-61
2024/01/16 12:58:37;;;;;;;1.85;0.70;;;3.80;99.90;;;;;;5080917;28;19927;-64